La Jose, PA (15753)

9:58 PM EST on February 13, 2016 (GMT -0500)
NE Indiana County Pa. | | Change Station
CLOSE
Current Station
Personal Weather Station
Location: Cherry Tree, PA
Elevation: 1601 ft
Nearby Weather Stations
Active Advisory: Wind Chill Advisory Active Notice: Local Storm Report

Elev 1601 ft 40.78 °N, 78.81 °W | Updated 48 seconds ago

Overcast
Overcast
4.6 °F
Feels Like 5 °F
N
0.0
Wind Variable Wind from WNW
Gusts 2.0 mph

Today
High -- | Low -- °F
--% Chance of Precip.
Yesterday
High -- | Low -- °F
Precip. -- in
Pressure 30.40 in
Visibility 10.0 miles
Clouds Mostly Cloudy 4000 ft
Overcast 5000 ft
Windchill 5 °F
Dew Point 0 °F
Humidity 82%
Rainfall 0.00 in
Snow Depth Not available.
7:11 AM 5:46 PM
Waxing Crescent, 37% visible
METAR KFIG 140254Z AUTO 26006G14KT 10SM BKN040 OVC050 M16/M21 A3029 RMK AO2 SLP293 T11561206 51007
Pressure 30.40 in
Visibility 10.0 miles
Clouds Mostly Cloudy 4000 ft
Overcast 5000 ft
Windchill 5 °F
Dew Point 0 °F
Humidity 82%
Rainfall 0.00 in
Snow Depth Not available.
7:11 AM 5:46 PM
Waxing Crescent, 37% visible
METAR KFIG 140254Z AUTO 26006G14KT 10SM BKN040 OVC050 M16/M21 A3029 RMK AO2 SLP293 T11561206 51007

10-Day Weather Forecast

Almanac

Astronomy

Feb. 13, 2016 Rise Set
Actual Time
Civil Twilight
Nautical Twilight
Astronomical Twilight
Moon
Length of Visible Light
Length of Day
Tomorrow will be .
, % of the Moon is Illuminated

Today's Extremes

State Highs State Lows

Community

WunderPhotos

Upload Photos

1,892,731 photos uploaded!

WunderBlog® & News

Nearby

Air Quality

  Air Quality AQ Index Pollutant
Not available.

Snow Depth

Station Depth Elevation

Earthquake Activity

City Distance Mag. Time & Date
Minimum magnitude displayed is 2.5.

Coastal Water Temperatures

Place Temperature

Stations

Nearby Weather Stations

Station Location Temp. Windchill Dew Point Humidity Wind Precip. Elev Updated Type
                   

Watches & Warnings

Wind Chill Advisory
Issued: 3:44 PM EST Feb. 13, 2016 – National Weather Service

... Wind Chill Advisory remains in effect until 11 am EST Sunday...

* locations... the Laurel Highlands.

* Hazard types... dangerously cold wind chills.

* Wind chills... 20 to 25 below zero tonight.

* Timing... now through Sunday morning.

* Impacts... frostbite to exposed skin in just 15 to 30 minutes.
Hypothermia possible.

* Winds... northwest 15 to 25 mph with gusts up to 40 mph.

* Temperatures... around zero.

Precautionary/preparedness actions...

If you will be outdoors... dress in layers and wear a hat and
gloves. Young children... the elderly and the homeless are
especially vulnerable to the cold. Appropriate action should be
taken to ensure pets have adequate protection from the cold
temperatures.